createdAt,value
2023-04-06T00:00:55.204Z,6.50
2023-04-06T00:03:22.111Z,5.97
2023-04-06T00:05:49.736Z,7.87
2023-04-06T00:08:16.795Z,7.67
2023-04-06T00:10:43.822Z,4.90
2023-04-06T00:13:10.930Z,6.60
2023-04-06T00:15:37.757Z,5.67
2023-04-06T00:18:04.822Z,5.17
2023-04-06T00:20:31.820Z,5.50
2023-04-06T00:22:58.756Z,5.90
2023-04-06T00:25:25.714Z,6.07
2023-04-06T00:27:52.568Z,6.83
2023-04-06T00:30:19.618Z,6.17
2023-04-06T00:32:46.629Z,7.40
2023-04-06T00:35:13.646Z,5.73
2023-04-06T00:37:40.424Z,7.30
2023-04-06T00:40:08.091Z,7.07
2023-04-06T00:42:34.986Z,6.33
2023-04-06T00:45:02.641Z,6.87
2023-04-06T00:47:29.907Z,6.37
2023-04-06T00:49:57.775Z,6.97
2023-04-06T00:52:24.650Z,6.90
2023-04-06T00:54:52.053Z,6.47
2023-04-06T00:57:20.955Z,6.80
2023-04-06T00:59:54.189Z,8.13
2023-04-06T01:02:21.353Z,6.27
2023-04-06T01:04:51.300Z,5.67
2023-04-06T01:07:33.492Z,8.67
2023-04-06T01:10:06.641Z,5.60
2023-04-06T01:12:34.927Z,5.60
2023-04-06T01:15:06.747Z,5.93
2023-04-06T01:17:35.398Z,6.23
2023-04-06T01:20:11.144Z,6.20
2023-04-06T01:22:38.875Z,5.93
2023-04-06T01:25:06.527Z,5.43
2023-04-06T01:27:41.108Z,6.47
2023-04-06T01:30:14.012Z,6.57
2023-04-06T01:33:02.644Z,6.40
2023-04-06T01:35:41.661Z,6.17
2023-04-06T01:38:15.662Z,9.27
2023-04-06T01:40:42.513Z,8.23
2023-04-06T01:43:10.166Z,8.30
2023-04-06T01:45:48.555Z,6.77
2023-04-06T01:48:19.948Z,7.43
2023-04-06T01:50:46.860Z,7.07
2023-04-06T01:53:18.851Z,7.57
2023-04-06T01:55:46.564Z,6.87
2023-04-06T01:58:27.231Z,6.83
2023-04-06T02:00:54.217Z,4.40
2023-04-06T02:03:21.751Z,6.40
2023-04-06T02:05:52.677Z,4.83
2023-04-06T02:08:25.777Z,5.13
2023-04-06T02:10:53.212Z,4.43
2023-04-06T02:13:29.287Z,4.63
2023-04-06T02:15:56.624Z,5.70
2023-04-06T02:18:23.744Z,4.73
2023-04-06T02:20:50.724Z,5.10
2023-04-06T02:23:17.541Z,4.77
2023-04-06T02:25:44.460Z,6.83
2023-04-06T02:28:11.427Z,4.80
2023-04-06T02:30:38.232Z,5.57
2023-04-06T02:33:05.808Z,6.70
2023-04-06T02:35:40.985Z,5.43
2023-04-06T02:38:08.048Z,4.67
2023-04-06T02:40:34.842Z,5.70
2023-04-06T02:43:10.304Z,4.13
2023-04-06T02:45:37.110Z,6.37
2023-04-06T02:48:04.778Z,5.97
2023-04-06T02:50:32.897Z,6.50
2023-04-06T02:53:03.534Z,8.60
2023-04-06T02:55:30.446Z,6.27
2023-04-06T02:57:57.302Z,7.53
2023-04-06T03:00:29.222Z,6.03
2023-04-06T03:02:56.664Z,7.47
2023-04-06T03:05:24.553Z,5.93
2023-04-06T03:07:51.377Z,8.10
2023-04-06T03:10:26.122Z,9.80
2023-04-06T03:12:52.955Z,6.53
2023-04-06T03:15:23.037Z,7.57
2023-04-06T03:17:55.756Z,8.87
2023-04-06T03:20:37.750Z,6.87
2023-04-06T03:23:04.843Z,5.80
2023-04-06T03:25:35.996Z,6.60
2023-04-06T03:28:06.170Z,5.43
2023-04-06T03:30:37.636Z,6.73
2023-04-06T03:33:04.983Z,6.37
2023-04-06T03:35:37.953Z,4.40
2023-04-06T03:38:06.094Z,5.07
2023-04-06T03:40:33.042Z,4.83
2023-04-06T03:42:59.880Z,4.17
2023-04-06T03:45:26.830Z,5.53
2023-04-06T03:47:53.823Z,3.93
2023-04-06T03:50:20.963Z,4.17
2023-04-06T03:52:47.752Z,3.87
2023-04-06T03:55:14.692Z,4.37
2023-04-06T03:57:41.547Z,5.03
2023-04-06T04:00:09.013Z,4.37
2023-04-06T04:02:41.721Z,4.23
2023-04-06T04:05:09.114Z,5.53
2023-04-06T04:07:37.484Z,6.67
2023-04-06T04:10:05.297Z,5.67
2023-04-06T04:12:32.810Z,7.07
2023-04-06T04:14:59.694Z,4.60
2023-04-06T04:17:26.899Z,6.67
2023-04-06T04:19:53.700Z,6.33
2023-04-06T04:22:20.634Z,5.63
2023-04-06T04:24:47.417Z,5.73
2023-04-06T04:27:14.861Z,6.67
2023-04-06T04:29:44.620Z,5.13
2023-04-06T04:32:13.248Z,5.83
2023-04-06T04:34:43.611Z,6.60
2023-04-06T04:37:17.715Z,6.13
2023-04-06T04:39:56.407Z,6.10
2023-04-06T04:42:23.259Z,6.67
2023-04-06T04:44:53.460Z,6.83
2023-04-06T04:47:32.202Z,7.90
2023-04-06T04:49:59.476Z,8.83
2023-04-06T04:52:26.520Z,7.30
2023-04-06T04:55:11.348Z,8.03
2023-04-06T04:57:38.146Z,6.53
2023-04-06T05:00:07.099Z,8.03
2023-04-06T05:02:35.946Z,9.03
2023-04-06T05:05:25.499Z,9.40
2023-04-06T05:07:52.741Z,8.27
2023-04-06T05:10:28.782Z,8.57
2023-04-06T05:12:59.771Z,8.13
2023-04-06T05:15:27.784Z,7.97
2023-04-06T05:17:59.305Z,7.40
2023-04-06T05:20:32.091Z,8.50
2023-04-06T05:22:59.631Z,8.63
2023-04-06T05:25:26.785Z,5.07
2023-04-06T05:27:57.387Z,8.23
2023-04-06T05:30:33.624Z,7.70
2023-04-06T05:33:00.659Z,12.17
2023-04-06T05:35:34.115Z,8.27
2023-04-06T05:38:11.379Z,8.00
2023-04-06T05:40:41.727Z,9.73
2023-04-06T05:43:11.969Z,9.70
2023-04-06T05:45:44.805Z,9.10
2023-04-06T05:48:11.730Z,10.03
2023-04-06T05:50:38.678Z,13.47
2023-04-06T05:53:06.151Z,11.33
2023-04-06T05:55:39.261Z,16.33
2023-04-06T05:58:11.547Z,11.03
2023-04-06T06:00:38.404Z,12.30
2023-04-06T06:03:09.615Z,11.87
2023-04-06T06:05:37.210Z,12.77
2023-04-06T06:08:09.796Z,14.07
2023-04-06T06:10:36.652Z,11.60
2023-04-06T06:13:03.552Z,8.33
2023-04-06T06:15:30.351Z,9.87
2023-04-06T06:17:57.252Z,12.67
2023-04-06T06:20:26.202Z,7.97
2023-04-06T06:22:53.448Z,9.00
2023-04-06T06:25:22.768Z,10.73
2023-04-06T06:27:50.864Z,12.57
2023-04-06T06:30:21.539Z,8.03
2023-04-06T06:32:51.024Z,8.33
2023-04-06T06:35:18.648Z,7.13
2023-04-06T06:37:46.791Z,9.57
2023-04-06T06:40:18.941Z,12.00
2023-04-06T06:42:47.774Z,11.73
2023-04-06T06:45:26.357Z,8.93
2023-04-06T06:47:55.348Z,7.80
2023-04-06T06:50:22.726Z,11.03
2023-04-06T06:52:49.565Z,7.77
2023-04-06T06:55:16.510Z,8.80
2023-04-06T06:57:44.133Z,9.87
2023-04-06T07:00:13.553Z,11.10
2023-04-06T07:02:41.845Z,7.40
2023-04-06T07:05:23.903Z,10.37
2023-04-06T07:07:55.128Z,7.63
2023-04-06T07:10:22.039Z,9.53
2023-04-06T07:12:48.993Z,7.57
2023-04-06T07:15:16.051Z,9.10
2023-04-06T07:17:42.968Z,6.90
2023-04-06T07:20:10.472Z,11.97
2023-04-06T07:22:37.334Z,8.80
2023-04-06T07:25:04.417Z,7.80
2023-04-06T07:27:31.325Z,10.93
2023-04-06T07:29:58.154Z,7.80
2023-04-06T07:32:25.661Z,13.23
2023-04-06T07:34:52.884Z,8.67
2023-04-06T07:37:19.980Z,6.93
2023-04-06T07:39:47.522Z,10.43
2023-04-06T07:42:14.534Z,15.23
2023-04-06T07:44:41.407Z,8.33
2023-04-06T07:47:09.581Z,12.23
2023-04-06T07:49:36.498Z,8.23
2023-04-06T07:52:04.124Z,8.97
2023-04-06T07:54:31.390Z,9.00
2023-04-06T07:56:59.575Z,9.50
2023-04-06T07:59:26.769Z,6.97
2023-04-06T08:01:53.589Z,7.77
2023-04-06T08:04:21.336Z,7.90
2023-04-06T08:06:48.197Z,7.47
2023-04-06T08:09:15.043Z,8.33
2023-04-06T08:11:41.949Z,5.70
2023-04-06T08:14:09.300Z,8.20
2023-04-06T08:16:36.213Z,8.23
2023-04-06T08:19:03.020Z,10.47
2023-04-06T08:21:29.828Z,8.57
2023-04-06T08:23:56.740Z,8.00
2023-04-06T08:26:23.667Z,9.37
2023-04-06T08:28:50.419Z,8.47
2023-04-06T08:31:17.310Z,10.53
2023-04-06T08:33:44.206Z,10.67
2023-04-06T08:36:12.012Z,9.27
2023-04-06T08:38:39.460Z,7.60
2023-04-06T08:41:13.431Z,8.63
2023-04-06T08:43:45.133Z,8.33
2023-04-06T08:46:13.014Z,7.93
2023-04-06T08:48:41.545Z,7.90
2023-04-06T08:51:12.334Z,7.20
2023-04-06T08:53:39.855Z,7.13
2023-04-06T08:56:08.124Z,6.20
2023-04-06T08:58:41.184Z,5.77
2023-04-06T09:01:12.355Z,5.60
2023-04-06T09:03:41.909Z,6.77
2023-04-06T09:06:10.370Z,5.70
2023-04-06T09:08:41.962Z,7.63
2023-04-06T09:11:09.933Z,6.73
2023-04-06T09:13:50.210Z,6.63
2023-04-06T09:16:17.772Z,8.20
2023-04-06T09:18:44.975Z,8.63
2023-04-06T09:21:12.462Z,7.63
2023-04-06T09:23:40.154Z,5.70
2023-04-06T09:26:08.025Z,6.60
2023-04-06T09:28:52.116Z,5.77
2023-04-06T09:31:39.264Z,6.00
2023-04-06T09:34:06.656Z,6.05
2023-04-06T09:36:35.856Z,7.00
2023-04-06T09:39:06.521Z,5.60
2023-04-06T09:41:35.364Z,6.10
2023-04-06T09:44:10.437Z,6.47
2023-04-06T09:46:54.906Z,6.28
2023-04-06T09:49:28.263Z,7.30
2023-04-06T09:51:59.337Z,9.38
2023-04-06T09:54:32.377Z,5.93
2023-04-06T09:57:20.908Z,7.83
2023-04-06T10:00:12.441Z,9.97
2023-04-06T10:03:12.659Z,7.50
2023-04-06T10:05:50.291Z,7.13
2023-04-06T10:08:19.586Z,7.47
2023-04-06T10:10:47.405Z,7.67
2023-04-06T10:13:14.269Z,7.20
2023-04-06T10:15:41.681Z,8.80
2023-04-06T10:18:09.972Z,7.23
2023-04-06T10:20:57.132Z,6.37
2023-04-06T10:23:50.470Z,8.30
2023-04-06T10:26:21.752Z,8.87
2023-04-06T10:28:50.566Z,5.40
2023-04-06T10:31:29.296Z,6.63
2023-04-06T10:34:05.175Z,9.07
2023-04-06T10:36:35.793Z,7.47
2023-04-06T10:39:06.041Z,7.50
2023-04-06T10:41:43.341Z,8.10
2023-04-06T10:44:22.518Z,8.70
2023-04-06T10:47:03.916Z,7.07
2023-04-06T10:49:30.980Z,6.50
2023-04-06T10:51:58.738Z,8.60
2023-04-06T10:54:27.894Z,7.20
2023-04-06T10:56:54.868Z,7.33
2023-04-06T10:59:22.835Z,8.43
2023-04-06T11:01:50.247Z,8.40
2023-04-06T11:04:22.044Z,6.97
2023-04-06T11:06:51.035Z,7.73
2023-04-06T11:09:29.136Z,7.33
2023-04-06T11:11:57.051Z,7.20
2023-04-06T11:14:24.158Z,6.07
2023-04-06T11:16:52.023Z,5.67
2023-04-06T11:19:19.399Z,7.03
2023-04-06T11:21:49.256Z,8.57
2023-04-06T11:24:23.018Z,8.27
2023-04-06T11:26:55.189Z,7.90
2023-04-06T11:29:27.324Z,7.63
2023-04-06T11:31:59.198Z,7.13
2023-04-06T11:34:26.993Z,6.20
2023-04-06T11:37:18.096Z,7.03
2023-04-06T11:39:52.883Z,5.83
2023-04-06T11:42:28.047Z,5.90
2023-04-06T11:44:56.387Z,6.13
2023-04-06T11:47:31.539Z,4.67
2023-04-06T11:50:07.308Z,7.93
2023-04-06T11:52:34.455Z,5.60
2023-04-06T11:55:18.961Z,5.85
2023-04-06T11:57:46.225Z,6.30
2023-04-06T12:00:13.650Z,7.68
2023-04-06T12:02:41.276Z,6.35
2023-04-06T12:05:09.365Z,5.80
2023-04-06T12:07:37.189Z,5.00
2023-04-06T12:10:05.048Z,4.95
2023-04-06T12:12:32.379Z,7.53
2023-04-06T12:14:59.756Z,5.68
2023-04-06T12:17:27.023Z,5.35
2023-04-06T12:19:54.162Z,6.00
2023-04-06T12:22:21.092Z,4.88
2023-04-06T12:24:48.054Z,4.32
2023-04-06T12:27:14.934Z,5.20
2023-04-06T12:29:43.226Z,4.78
2023-04-06T12:32:10.275Z,4.40
2023-04-06T12:34:37.439Z,4.72
2023-04-06T12:37:04.361Z,5.38
2023-04-06T12:39:31.841Z,4.60
2023-04-06T12:41:58.746Z,5.22
2023-04-06T12:44:26.923Z,5.32
2023-04-06T12:46:54.180Z,5.47
2023-04-06T12:49:21.234Z,4.75
2023-04-06T12:51:48.114Z,4.65
2023-04-06T12:54:15.001Z,6.82
2023-04-06T12:56:42.139Z,4.80
2023-04-06T12:59:09.134Z,4.07
2023-04-06T13:01:36.371Z,5.03
2023-04-06T13:04:03.404Z,4.50
2023-04-06T13:06:31.342Z,5.85
2023-04-06T13:08:58.343Z,4.60
2023-04-06T13:11:28.556Z,4.70
2023-04-06T13:13:55.993Z,5.23
2023-04-06T13:16:23.036Z,5.17
2023-04-06T13:18:51.100Z,3.70
2023-04-06T13:21:18.477Z,4.57
2023-04-06T13:23:45.708Z,4.97
2023-04-06T13:26:14.575Z,4.67
2023-04-06T13:28:42.229Z,5.50
2023-04-06T13:31:10.680Z,4.43
2023-04-06T13:33:37.791Z,4.18
2023-04-06T13:36:05.118Z,4.90
2023-04-06T13:38:32.023Z,4.90
2023-04-06T13:40:59.061Z,4.07
2023-04-06T13:43:27.659Z,5.32
2023-04-06T13:45:56.777Z,3.80
2023-04-06T13:48:24.112Z,5.65
2023-04-06T13:50:51.292Z,4.13
2023-04-06T13:53:18.451Z,3.97
2023-04-06T13:55:52.946Z,3.67
2023-04-06T13:58:19.803Z,4.20
2023-04-06T14:00:47.340Z,3.47
2023-04-06T14:03:14.455Z,3.42
2023-04-06T14:05:41.678Z,2.63
2023-04-06T14:08:08.439Z,3.45
2023-04-06T14:10:39.877Z,3.42
2023-04-06T14:13:06.654Z,3.90
2023-04-06T14:15:33.493Z,3.47
2023-04-06T14:18:01.483Z,4.40
2023-04-06T14:20:28.354Z,5.17
2023-04-06T14:22:56.708Z,4.53
2023-04-06T14:25:23.512Z,4.47
2023-04-06T14:27:50.427Z,3.63
2023-04-06T14:30:17.351Z,4.37
2023-04-06T14:32:44.161Z,4.60
2023-04-06T14:35:11.638Z,4.20
2023-04-06T14:37:38.380Z,3.60
2023-04-06T14:40:05.692Z,3.17
2023-04-06T14:42:32.615Z,2.70
2023-04-06T14:44:59.395Z,2.60
2023-04-06T14:47:26.185Z,3.93
2023-04-06T14:49:54.384Z,4.10
2023-04-06T14:52:21.313Z,4.23
2023-04-06T14:54:48.170Z,3.07
2023-04-06T14:57:15.074Z,4.23
2023-04-06T14:59:41.901Z,4.37
2023-04-06T15:02:08.712Z,4.90
2023-04-06T15:04:37.202Z,3.33
2023-04-06T15:07:04.083Z,4.90
2023-04-06T15:09:31.380Z,3.50
2023-04-06T15:11:58.545Z,3.33
2023-04-06T15:14:25.935Z,3.67
2023-04-06T15:16:52.853Z,4.37
2023-04-06T15:19:19.765Z,3.50
2023-04-06T15:21:46.550Z,3.63
2023-04-06T15:24:13.330Z,5.77
2023-04-06T15:26:40.466Z,7.30
2023-04-06T15:29:07.490Z,5.33
2023-04-06T15:31:38.267Z,2.47
2023-04-06T15:34:09.255Z,3.93
2023-04-06T15:36:36.309Z,4.07
2023-04-06T15:39:04.396Z,3.67
2023-04-06T15:41:31.672Z,4.73
2023-04-06T15:43:58.629Z,3.63
2023-04-06T15:46:28.145Z,4.50
2023-04-06T15:48:56.067Z,3.23
2023-04-06T15:51:24.107Z,6.13
2023-04-06T15:53:51.021Z,7.67
2023-04-06T15:56:17.989Z,4.00
2023-04-06T15:58:45.099Z,4.57
2023-04-06T16:01:16.880Z,4.13
2023-04-06T16:03:44.444Z,4.60
2023-04-06T16:06:12.010Z,4.20
2023-04-06T16:08:39.763Z,4.13
2023-04-06T16:11:06.899Z,3.70
2023-04-06T16:13:33.912Z,6.43
2023-04-06T16:16:01.304Z,4.27
2023-04-06T16:18:28.228Z,6.07
2023-04-06T16:20:55.474Z,6.70
2023-04-06T16:23:22.541Z,6.80
2023-04-06T16:25:50.766Z,5.77
2023-04-06T16:28:17.692Z,3.50
2023-04-06T16:30:46.652Z,6.57
2023-04-06T16:33:16.913Z,5.13
2023-04-06T16:35:45.369Z,6.10
2023-04-06T16:38:12.882Z,3.97
2023-04-06T16:40:39.750Z,4.33
2023-04-06T16:43:06.772Z,5.23
2023-04-06T16:45:33.589Z,3.90
2023-04-06T16:48:00.660Z,4.00
2023-04-06T16:50:27.436Z,3.73
2023-04-06T16:52:54.491Z,5.50
2023-04-06T16:55:21.284Z,4.90
2023-04-06T16:57:49.268Z,4.37
2023-04-06T17:00:16.779Z,3.93
2023-04-06T17:02:47.469Z,3.67
2023-04-06T17:05:14.766Z,3.70
2023-04-06T17:07:41.528Z,5.80
2023-04-06T17:10:09.090Z,2.70
2023-04-06T17:12:36.352Z,2.70
2023-04-06T17:15:03.226Z,3.47
2023-04-06T17:17:30.247Z,2.33
2023-04-06T17:19:57.239Z,2.63
2023-04-06T17:22:24.043Z,2.77
2023-04-06T17:24:50.810Z,2.10
2023-04-06T17:27:19.165Z,3.03
2023-04-06T17:29:46.004Z,2.57
2023-04-06T17:32:12.803Z,3.17
2023-04-06T17:34:39.568Z,2.10
2023-04-06T17:37:06.567Z,5.30
2023-04-06T17:39:33.484Z,3.67
2023-04-06T17:42:00.294Z,2.27
2023-04-06T17:44:27.042Z,2.37
2023-04-06T17:46:53.809Z,3.07
2023-04-06T17:49:20.779Z,5.50
2023-04-06T17:51:47.610Z,2.90
2023-04-06T17:54:14.395Z,3.13
2023-04-06T17:56:41.510Z,4.47
2023-04-06T17:59:10.474Z,3.93
2023-04-06T18:01:40.534Z,3.97
2023-04-06T18:04:07.572Z,3.87
2023-04-06T18:06:34.338Z,3.73
2023-04-06T18:09:01.459Z,4.67
2023-04-06T18:11:31.042Z,6.93
2023-04-06T18:13:58.422Z,4.53
2023-04-06T18:16:25.418Z,5.63
2023-04-06T18:18:52.246Z,4.97
2023-04-06T18:21:19.154Z,5.13
2023-04-06T18:23:46.706Z,6.67
2023-04-06T18:26:18.332Z,4.00
2023-04-06T18:28:45.810Z,4.17
2023-04-06T18:31:12.764Z,4.23
2023-04-06T18:33:39.562Z,3.97
2023-04-06T18:36:06.695Z,2.63
2023-04-06T18:38:33.531Z,4.60
2023-04-06T18:41:00.449Z,3.53
2023-04-06T18:43:28.426Z,4.10
2023-04-06T18:45:55.306Z,3.83
2023-04-06T18:48:22.234Z,4.13
2023-04-06T18:50:59.886Z,2.70
2023-04-06T18:53:26.710Z,4.83
2023-04-06T18:55:53.480Z,3.47
2023-04-06T18:58:20.497Z,4.60
2023-04-06T19:00:47.479Z,4.97
2023-04-06T19:03:14.322Z,4.93
2023-04-06T19:05:41.906Z,9.43
2023-04-06T19:08:09.050Z,7.77
2023-04-06T19:10:37.332Z,10.00
2023-04-06T19:13:04.407Z,13.80
2023-04-06T19:15:31.539Z,11.83
2023-04-06T19:17:58.849Z,10.73
2023-04-06T19:20:25.727Z,15.00
2023-04-06T19:22:52.427Z,11.53
2023-04-06T19:25:19.244Z,10.60
2023-04-06T19:27:46.437Z,9.90
2023-04-06T19:30:13.370Z,10.80
2023-04-06T19:32:41.209Z,8.20
2023-04-06T19:35:08.713Z,9.40
2023-04-06T19:37:39.169Z,8.13
2023-04-06T19:40:07.682Z,8.90
2023-04-06T19:42:34.941Z,6.47
2023-04-06T19:45:01.793Z,6.73
2023-04-06T19:47:28.559Z,9.57
2023-04-06T19:49:55.598Z,6.93
2023-04-06T19:52:22.736Z,7.73
2023-04-06T19:54:49.611Z,7.70
2023-04-06T19:57:16.482Z,9.67
2023-04-06T19:59:43.257Z,6.50
2023-04-06T20:02:10.109Z,7.90
2023-04-06T20:04:37.291Z,7.20
2023-04-06T20:07:04.201Z,7.10
2023-04-06T20:09:31.297Z,7.03
2023-04-06T20:11:58.027Z,6.13
2023-04-06T20:14:25.741Z,6.90
2023-04-06T20:16:53.293Z,5.90
2023-04-06T20:19:20.065Z,6.83
2023-04-06T20:21:48.232Z,8.47
2023-04-06T20:24:15.641Z,7.17
2023-04-06T20:26:42.371Z,7.00
2023-04-06T20:29:09.198Z,9.23
2023-04-06T20:31:36.050Z,9.17
2023-04-06T20:34:03.196Z,8.97
2023-04-06T20:36:32.119Z,9.93
2023-04-06T20:38:58.896Z,12.67
2023-04-06T20:41:25.686Z,10.60
2023-04-06T20:43:52.437Z,8.97
2023-04-06T20:46:19.225Z,10.23
2023-04-06T20:48:46.289Z,7.57
2023-04-06T20:51:21.128Z,10.43
2023-04-06T20:53:48.508Z,14.33
2023-04-06T20:56:15.460Z,11.10
2023-04-06T20:58:42.529Z,10.17
2023-04-06T21:01:17.596Z,9.03
2023-04-06T21:03:44.949Z,8.63
2023-04-06T21:06:12.049Z,9.13
2023-04-06T21:08:39.004Z,7.53
2023-04-06T21:11:07.102Z,8.63
2023-04-06T21:13:34.803Z,6.97
2023-04-06T21:16:02.093Z,7.50
2023-04-06T21:18:31.702Z,6.27
2023-04-06T21:20:58.674Z,6.90
2023-04-06T21:23:25.576Z,7.70
2023-04-06T21:25:53.453Z,9.30
2023-04-06T21:28:20.256Z,7.80
2023-04-06T21:30:46.987Z,9.10
2023-04-06T21:33:13.792Z,8.37
2023-04-06T21:35:41.436Z,8.07
2023-04-06T21:38:09.044Z,7.57
2023-04-06T21:40:35.933Z,6.73
2023-04-06T21:43:03.201Z,6.97
2023-04-06T21:45:30.045Z,6.50
2023-04-06T21:47:56.874Z,6.07
2023-04-06T21:50:23.619Z,5.10
2023-04-06T21:52:50.643Z,5.87
2023-04-06T21:55:17.528Z,6.50
2023-04-06T21:57:44.621Z,5.60
2023-04-06T22:00:12.099Z,5.43
2023-04-06T22:02:45.680Z,5.67
2023-04-06T22:05:13.005Z,5.63
2023-04-06T22:07:40.125Z,6.30
2023-04-06T22:10:07.300Z,6.10
2023-04-06T22:12:34.130Z,8.67
2023-04-06T22:15:00.932Z,6.10
2023-04-06T22:17:27.906Z,5.63
2023-04-06T22:19:54.668Z,5.80
2023-04-06T22:22:21.433Z,8.77
2023-04-06T22:24:48.194Z,7.30
2023-04-06T22:27:14.979Z,7.07
2023-04-06T22:29:41.794Z,6.87
2023-04-06T22:32:08.548Z,6.63
2023-04-06T22:34:35.511Z,6.20
2023-04-06T22:37:02.243Z,7.60
2023-04-06T22:39:28.985Z,8.00
2023-04-06T22:41:55.729Z,10.93
2023-04-06T22:44:23.106Z,7.03
2023-04-06T22:46:49.953Z,8.27
2023-04-06T22:49:16.900Z,7.83
2023-04-06T22:51:43.650Z,6.27
2023-04-06T22:54:16.108Z,5.97
2023-04-06T22:56:43.888Z,7.57
2023-04-06T22:59:10.606Z,6.37
2023-04-06T23:01:37.398Z,4.93
2023-04-06T23:04:04.523Z,5.10
2023-04-06T23:06:31.353Z,5.67
2023-04-06T23:08:58.085Z,6.80
2023-04-06T23:11:24.842Z,13.20
2023-04-06T23:13:51.676Z,5.90
2023-04-06T23:16:18.555Z,7.57
2023-04-06T23:18:45.423Z,7.33
2023-04-06T23:21:12.142Z,7.93
2023-04-06T23:23:38.908Z,4.50
2023-04-06T23:26:06.072Z,5.93
2023-04-06T23:28:32.854Z,5.83
2023-04-06T23:30:59.544Z,4.30
2023-04-06T23:33:27.001Z,4.97
2023-04-06T23:35:53.780Z,5.33
2023-04-06T23:38:20.507Z,6.07
2023-04-06T23:40:47.200Z,4.60
2023-04-06T23:43:13.942Z,5.30
2023-04-06T23:45:42.114Z,5.67
2023-04-06T23:48:09.488Z,5.30
2023-04-06T23:50:36.667Z,4.97
2023-04-06T23:53:04.343Z,5.07
2023-04-06T23:55:31.597Z,6.67
2023-04-06T23:57:58.508Z,4.53
